createdAt,value
2022-10-18T00:00:22.689Z,100876.65
2022-10-18T00:03:10.675Z,100878.86
2022-10-18T00:05:38.381Z,100883.49
2022-10-18T00:08:05.917Z,100884.88
2022-10-18T00:10:33.493Z,100883.42
2022-10-18T00:13:01.276Z,100879.30
2022-10-18T00:15:28.702Z,100872.91
2022-10-18T00:17:56.264Z,100872.41
2022-10-18T00:20:23.693Z,100874.59
2022-10-18T00:22:51.369Z,100877.79
2022-10-18T00:25:19.551Z,100883.46
2022-10-18T00:28:01.376Z,100878.32
2022-10-18T00:30:28.569Z,100871.93
2022-10-18T00:32:55.954Z,100866.29
2022-10-18T00:35:23.647Z,100867.45
2022-10-18T00:38:05.302Z,100865.67
2022-10-18T00:40:32.694Z,100867.36
2022-10-18T00:42:59.863Z,100877.13
2022-10-18T00:45:27.667Z,100870.82
2022-10-18T00:47:59.669Z,100876.86
2022-10-18T00:50:32.135Z,100878.46
2022-10-18T00:53:04.368Z,100880.66
2022-10-18T00:55:33.742Z,100881.64
2022-10-18T00:58:02.029Z,100882.05
2022-10-18T01:00:29.449Z,100884.17
2022-10-18T01:02:58.835Z,100884.96
2022-10-18T01:05:26.694Z,100880.73
2022-10-18T01:08:15.886Z,100876.00
2022-10-18T01:11:22.445Z,100877.20
2022-10-18T01:14:24.111Z,100874.77
2022-10-18T01:17:11.075Z,100870.16
2022-10-18T01:20:16.235Z,100865.85
2022-10-18T01:23:08.044Z,100872.35
2022-10-18T01:25:55.985Z,100869.31
2022-10-18T01:28:40.643Z,100868.48
2022-10-18T01:31:35.012Z,100866.86
2022-10-18T01:34:07.903Z,100867.58
2022-10-18T01:36:47.575Z,100867.20
2022-10-18T01:39:34.579Z,100870.52
2022-10-18T01:42:07.277Z,100867.26
2022-10-18T01:44:36.466Z,100872.01
2022-10-18T01:47:06.472Z,100867.67
2022-10-18T01:49:34.056Z,100867.16
2022-10-18T01:52:01.513Z,100862.55
2022-10-18T01:54:42.908Z,100858.86
2022-10-18T01:57:25.707Z,100851.36
2022-10-18T01:59:59.520Z,100854.49
2022-10-18T02:02:53.630Z,100859.77
2022-10-18T02:05:48.784Z,100858.30
2022-10-18T02:08:33.512Z,100861.55
2022-10-18T02:11:08.333Z,100863.81
2022-10-18T02:13:41.537Z,100864.42
2022-10-18T02:16:34.391Z,100862.29
2022-10-18T02:19:40.642Z,100862.56
2022-10-18T02:22:11.222Z,100868.27
2022-10-18T02:24:43.317Z,100870.34
2022-10-18T02:27:25.600Z,100865.70
2022-10-18T02:29:53.851Z,100862.77
2022-10-18T02:32:29.326Z,100865.66
2022-10-18T02:35:04.439Z,100862.34
2022-10-18T02:37:39.072Z,100862.00
2022-10-18T02:40:09.472Z,100865.34
2022-10-18T02:42:50.085Z,100866.39
2022-10-18T02:45:17.824Z,100862.19
2022-10-18T02:47:45.331Z,100864.37
2022-10-18T02:50:14.156Z,100868.12
2022-10-18T02:52:41.368Z,100872.72
2022-10-18T02:55:23.247Z,100874.35
2022-10-18T02:57:50.779Z,100867.73
2022-10-18T03:00:18.607Z,100866.34
2022-10-18T03:02:48.639Z,100869.55
2022-10-18T03:05:16.224Z,100873.61
2022-10-18T03:07:43.579Z,100878.69
2022-10-18T03:10:11.093Z,100874.18
2022-10-18T03:12:38.471Z,100871.73
2022-10-18T03:15:06.317Z,100868.91
2022-10-18T03:17:48.054Z,100868.98
2022-10-18T03:20:15.610Z,100868.52
2022-10-18T03:22:43.050Z,100869.38
2022-10-18T03:25:10.385Z,100869.59
2022-10-18T03:27:37.852Z,100870.52
2022-10-18T03:30:06.012Z,100869.91
2022-10-18T03:32:33.849Z,100871.98
2022-10-18T03:35:01.468Z,100878.61
2022-10-18T03:37:28.996Z,100880.41
2022-10-18T03:39:56.504Z,100878.12
2022-10-18T03:42:23.788Z,100877.94
2022-10-18T03:44:51.334Z,100883.00
2022-10-18T03:47:18.949Z,100881.72
2022-10-18T03:49:46.360Z,100886.42
2022-10-18T03:52:13.792Z,100887.70
2022-10-18T03:54:41.029Z,100893.05
2022-10-18T03:57:08.447Z,100892.93
2022-10-18T03:59:36.365Z,100899.06
2022-10-18T04:02:04.783Z,100901.02
2022-10-18T04:04:32.091Z,100900.02
2022-10-18T04:06:59.610Z,100899.87
2022-10-18T04:09:26.810Z,100907.20
2022-10-18T04:11:54.170Z,100908.77
2022-10-18T04:14:21.649Z,100905.70
2022-10-18T04:16:49.346Z,100907.58
2022-10-18T04:19:16.852Z,100907.21
2022-10-18T04:21:44.447Z,100908.02
2022-10-18T04:24:11.821Z,100907.41
2022-10-18T04:26:39.321Z,100909.33
2022-10-18T04:29:06.648Z,100909.94
2022-10-18T04:31:34.160Z,100910.14
2022-10-18T04:34:02.402Z,100909.23
2022-10-18T04:36:30.995Z,100919.17
2022-10-18T04:38:58.446Z,100917.52
2022-10-18T04:41:25.786Z,100915.19
2022-10-18T04:43:53.350Z,100917.73
2022-10-18T04:46:21.004Z,100913.21
2022-10-18T04:48:48.576Z,100909.23
2022-10-18T04:51:16.144Z,100910.73
2022-10-18T04:53:43.769Z,100914.09
2022-10-18T04:56:11.462Z,100919.05
2022-10-18T04:58:38.720Z,100918.41
2022-10-18T05:01:07.389Z,100920.29
2022-10-18T05:03:35.290Z,100921.59
2022-10-18T05:06:03.727Z,100921.41
2022-10-18T05:08:33.219Z,100920.42
2022-10-18T05:11:01.079Z,100920.33
2022-10-18T05:13:29.790Z,100917.83
2022-10-18T05:15:58.994Z,100921.40
2022-10-18T05:18:26.925Z,100925.20
2022-10-18T05:20:54.356Z,100921.96
2022-10-18T05:23:21.837Z,100920.82
2022-10-18T05:25:49.210Z,100916.90
2022-10-18T05:28:38.174Z,100917.77
2022-10-18T05:31:06.032Z,100914.17
2022-10-18T05:33:47.640Z,100917.50
2022-10-18T05:36:15.491Z,100908.35
2022-10-18T05:38:44.832Z,100908.97
2022-10-18T05:41:12.462Z,100909.05
2022-10-18T05:43:40.602Z,100905.23
2022-10-18T05:46:15.513Z,100909.77
2022-10-18T05:48:44.513Z,100918.17
2022-10-18T05:51:12.010Z,100920.91
2022-10-18T05:53:39.325Z,100915.66
2022-10-18T05:56:07.258Z,100919.55
2022-10-18T05:58:34.774Z,100918.06
2022-10-18T06:01:03.457Z,100922.04
2022-10-18T06:03:31.517Z,100922.00
2022-10-18T06:06:09.780Z,100928.02
2022-10-18T06:08:38.368Z,100936.28
2022-10-18T06:11:17.121Z,100940.38
2022-10-18T06:13:47.093Z,100946.11
2022-10-18T06:16:16.076Z,100949.69
2022-10-18T06:18:46.952Z,100954.66
2022-10-18T06:21:14.406Z,100952.87
2022-10-18T06:23:41.691Z,100962.58
2022-10-18T06:26:11.270Z,100965.52
2022-10-18T06:28:38.759Z,100969.23
2022-10-18T06:31:06.592Z,100970.66
2022-10-18T06:33:36.618Z,100974.66
2022-10-18T06:36:07.932Z,100974.20
2022-10-18T06:38:35.832Z,100973.61
2022-10-18T06:41:19.135Z,100968.95
2022-10-18T06:44:06.708Z,100957.23
2022-10-18T06:46:34.111Z,100944.41
2022-10-18T06:49:01.495Z,100948.39
2022-10-18T06:51:29.036Z,100946.44
2022-10-18T06:54:17.003Z,100953.89
2022-10-18T06:56:44.085Z,100954.42
2022-10-18T06:59:11.891Z,100969.84
2022-10-18T07:01:39.384Z,100968.32
2022-10-18T07:04:06.813Z,100965.64
2022-10-18T07:06:34.172Z,100962.39
2022-10-18T07:09:02.786Z,100960.80
2022-10-18T07:11:30.571Z,100962.80
2022-10-18T07:14:03.827Z,100968.14
2022-10-18T07:16:33.857Z,100972.20
2022-10-18T07:19:02.132Z,100975.33
2022-10-18T07:21:29.469Z,100976.42
2022-10-18T07:23:57.179Z,100975.04
2022-10-18T07:26:33.417Z,100979.99
2022-10-18T07:29:15.110Z,100976.41
2022-10-18T07:31:42.485Z,100968.73
2022-10-18T07:34:24.295Z,100969.59
2022-10-18T07:36:51.418Z,100970.22
2022-10-18T07:39:18.587Z,100976.66
2022-10-18T07:41:46.099Z,100981.91
2022-10-18T07:44:13.717Z,100977.13
2022-10-18T07:46:41.208Z,100982.58
2022-10-18T07:49:08.662Z,100981.09
2022-10-18T07:51:36.007Z,100975.87
2022-10-18T07:54:03.531Z,100979.02
2022-10-18T07:56:31.162Z,100983.88
2022-10-18T07:58:58.816Z,100982.27
2022-10-18T08:01:26.364Z,100983.16
2022-10-18T08:03:54.217Z,100982.85
2022-10-18T08:06:22.438Z,100980.61
2022-10-18T08:08:50.154Z,100968.92
2022-10-18T08:11:20.571Z,100961.21
2022-10-18T08:13:48.613Z,100964.67
2022-10-18T08:16:20.071Z,100966.42
2022-10-18T08:18:48.048Z,100962.93
2022-10-18T08:21:17.565Z,100959.36
2022-10-18T08:23:45.527Z,100959.33
2022-10-18T08:26:16.481Z,100964.71
2022-10-18T08:28:53.577Z,100959.15
2022-10-18T08:31:26.317Z,100963.46
2022-10-18T08:33:56.860Z,100968.65
2022-10-18T08:36:24.503Z,100965.60
2022-10-18T08:38:52.092Z,100969.12
2022-10-18T08:41:36.977Z,100972.23
2022-10-18T08:44:13.229Z,100974.31
2022-10-18T08:46:45.804Z,100975.88
2022-10-18T08:50:00.385Z,100973.05
2022-10-18T08:52:33.192Z,100968.92
2022-10-18T08:55:02.529Z,100956.27
2022-10-18T08:57:32.612Z,100952.05
2022-10-18T09:00:05.861Z,100960.48
2022-10-18T09:02:49.319Z,100965.34
2022-10-18T09:05:31.368Z,100954.44
2022-10-18T09:08:36.976Z,100957.96
2022-10-18T09:11:32.228Z,100956.00
2022-10-18T09:14:23.711Z,100953.08
2022-10-18T09:17:16.989Z,100948.95
2022-10-18T09:20:22.158Z,100942.77
2022-10-18T09:23:19.641Z,100934.90
2022-10-18T09:25:53.355Z,100929.97
2022-10-18T09:28:39.293Z,100919.48
2022-10-18T09:31:32.338Z,100912.23
2022-10-18T09:34:22.679Z,100906.17
2022-10-18T09:36:52.350Z,100909.79
2022-10-18T09:39:30.276Z,100915.90
2022-10-18T09:42:07.012Z,100917.09
2022-10-18T09:45:00.109Z,100919.30
2022-10-18T09:47:37.898Z,100926.27
2022-10-18T09:50:54.696Z,100921.16
2022-10-18T09:53:37.018Z,100919.70
2022-10-18T09:56:29.952Z,100921.27
2022-10-18T09:59:51.009Z,100909.11
2022-10-18T10:02:21.778Z,100896.94
2022-10-18T10:04:50.717Z,100890.79
2022-10-18T10:07:27.716Z,100882.63
2022-10-18T10:10:17.805Z,100876.38
2022-10-18T10:12:45.644Z,100865.34
2022-10-18T10:15:29.505Z,100861.24
2022-10-18T10:18:14.383Z,100861.64
2022-10-18T10:20:46.303Z,100867.86
2022-10-18T10:23:21.088Z,100872.70
2022-10-18T10:26:19.992Z,100876.55
2022-10-18T10:28:48.408Z,100883.72
2022-10-18T10:31:31.011Z,100884.95
2022-10-18T10:34:21.686Z,100883.48
2022-10-18T10:36:52.151Z,100888.81
2022-10-18T10:39:21.794Z,100889.10
2022-10-18T10:41:56.738Z,100888.15
2022-10-18T10:44:28.411Z,100890.36
2022-10-18T10:46:56.857Z,100892.35
2022-10-18T10:49:46.052Z,100891.70
2022-10-18T10:52:27.285Z,100891.75
2022-10-18T10:55:34.918Z,100880.08
2022-10-18T10:58:03.113Z,100885.71
2022-10-18T11:00:44.087Z,100889.32
2022-10-18T11:03:29.126Z,100887.31
2022-10-18T11:06:00.391Z,100888.53
2022-10-18T11:08:41.109Z,100888.27
2022-10-18T11:11:23.295Z,100887.31
2022-10-18T11:14:07.254Z,100878.76
2022-10-18T11:17:06.905Z,100876.69
2022-10-18T11:20:10.636Z,100870.80
2022-10-18T11:23:06.773Z,100868.98
2022-10-18T11:25:58.138Z,100856.14
2022-10-18T11:28:35.251Z,100850.22
2022-10-18T11:31:14.578Z,100852.88
2022-10-18T11:34:09.699Z,100853.11
2022-10-18T11:37:23.041Z,100850.80
2022-10-18T11:39:54.778Z,100851.82
2022-10-18T11:43:00.595Z,100848.98
2022-10-18T11:46:02.464Z,100840.45
2022-10-18T11:48:35.677Z,100834.10
2022-10-18T11:51:06.083Z,100827.55
2022-10-18T11:53:52.204Z,100832.20
2022-10-18T11:56:38.274Z,100835.46
2022-10-18T11:59:33.512Z,100830.50
2022-10-18T12:02:41.628Z,100820.13
2022-10-18T12:05:26.161Z,100813.95
2022-10-18T12:08:05.159Z,100815.09
2022-10-18T12:10:52.771Z,100811.11
2022-10-18T12:13:51.097Z,100811.77
2022-10-18T12:16:39.014Z,100802.73
2022-10-18T12:19:28.159Z,100795.17
2022-10-18T12:22:13.318Z,100795.98
2022-10-18T12:24:41.756Z,100799.04
2022-10-18T12:27:13.249Z,100790.24
2022-10-18T12:29:50.194Z,100778.91
2022-10-18T12:32:24.364Z,100774.80
2022-10-18T12:35:06.254Z,100776.39
2022-10-18T12:37:36.806Z,100775.23
2022-10-18T12:40:13.445Z,100771.75
2022-10-18T12:42:47.407Z,100767.40
2022-10-18T12:45:46.272Z,100771.05
2022-10-18T12:48:28.796Z,100774.13
2022-10-18T12:51:20.770Z,100765.71
2022-10-18T12:53:52.606Z,100762.27
2022-10-18T12:56:44.026Z,100752.14
2022-10-18T12:59:14.638Z,100747.16
2022-10-18T13:01:51.329Z,100752.23
2022-10-18T13:04:32.172Z,100761.59
2022-10-18T13:07:22.566Z,100756.23
2022-10-18T13:10:12.430Z,100754.13
2022-10-18T13:13:38.633Z,100746.23
2022-10-18T13:16:27.982Z,100741.35
2022-10-18T13:19:08.982Z,100745.91
2022-10-18T13:22:08.481Z,100753.10
2022-10-18T13:25:10.438Z,100755.34
2022-10-18T13:28:08.055Z,100755.95
2022-10-18T13:31:56.445Z,100753.48
2022-10-18T13:36:07.565Z,100740.63
2022-10-18T13:39:06.095Z,100731.95
2022-10-18T13:41:45.756Z,100728.16
2022-10-18T13:44:37.108Z,100726.31
2022-10-18T13:47:04.349Z,100723.25
2022-10-18T13:49:58.527Z,100717.11
2022-10-18T13:52:49.576Z,100720.57
2022-10-18T13:55:41.895Z,100726.10
2022-10-18T13:58:22.981Z,100722.54
2022-10-18T14:01:21.687Z,100723.71
2022-10-18T14:03:59.077Z,100730.02
2022-10-18T14:06:43.348Z,100723.44
2022-10-18T14:09:43.784Z,100723.85
2022-10-18T14:12:45.666Z,100719.65
2022-10-18T14:15:23.770Z,100718.81
2022-10-18T14:18:18.550Z,100711.13
2022-10-18T14:21:12.208Z,100708.00
2022-10-18T14:23:44.384Z,100711.38
2022-10-18T14:26:18.283Z,100711.56
2022-10-18T14:29:01.423Z,100719.29
2022-10-18T14:31:29.703Z,100727.21
2022-10-18T14:33:58.974Z,100727.63
2022-10-18T14:36:35.829Z,100724.70
2022-10-18T14:39:06.984Z,100725.90
2022-10-18T14:41:41.029Z,100723.40
2022-10-18T14:44:14.644Z,100719.27
2022-10-18T14:46:50.113Z,100713.23
2022-10-18T14:49:19.935Z,100706.70
2022-10-18T14:51:51.065Z,100705.55
2022-10-18T14:54:25.093Z,100708.55
2022-10-18T14:56:55.967Z,100710.69
2022-10-18T14:59:30.256Z,100712.66
2022-10-18T15:02:23.087Z,100711.25
2022-10-18T15:05:21.603Z,100711.27
2022-10-18T15:07:50.969Z,100709.03
2022-10-18T15:10:28.019Z,100700.38
2022-10-18T15:13:10.880Z,100694.19
2022-10-18T15:15:40.141Z,100683.75
2022-10-18T15:18:18.877Z,100671.98
2022-10-18T15:20:46.100Z,100683.80
2022-10-18T15:23:30.850Z,100690.63
2022-10-18T15:26:14.832Z,100687.94
2022-10-18T15:29:01.466Z,100698.27
2022-10-18T15:31:34.978Z,100698.73
2022-10-18T15:34:25.990Z,100688.05
2022-10-18T15:36:56.639Z,100681.60
2022-10-18T15:39:30.773Z,100667.48
2022-10-18T15:42:01.103Z,100657.16
2022-10-18T15:44:46.304Z,100646.09
2022-10-18T15:47:15.654Z,100638.80
2022-10-18T15:49:45.762Z,100652.43
2022-10-18T15:52:39.193Z,100659.63
2022-10-18T15:55:29.733Z,100658.50
2022-10-18T15:58:12.072Z,100655.88
2022-10-18T16:00:39.666Z,100662.09
2022-10-18T16:03:08.718Z,100657.10
2022-10-18T16:05:37.288Z,100663.61
2022-10-18T16:08:04.753Z,100667.29
2022-10-18T16:10:31.948Z,100682.83
2022-10-18T16:12:59.342Z,100689.91
2022-10-18T16:15:26.546Z,100695.56
2022-10-18T16:17:53.872Z,100699.18
2022-10-18T16:20:24.383Z,100702.10
2022-10-18T16:22:52.083Z,100691.76
2022-10-18T16:25:19.488Z,100688.40
2022-10-18T16:27:46.910Z,100681.95
2022-10-18T16:30:18.197Z,100684.70
2022-10-18T16:32:46.088Z,100683.00
2022-10-18T16:35:28.299Z,100683.56
2022-10-18T16:37:56.187Z,100686.06
2022-10-18T16:40:41.102Z,100666.88
2022-10-18T16:43:08.870Z,100668.72
2022-10-18T16:45:36.392Z,100675.59
2022-10-18T16:48:04.409Z,100674.35
2022-10-18T16:50:35.298Z,100676.33
2022-10-18T16:53:02.933Z,100677.80
2022-10-18T16:55:30.229Z,100681.19
2022-10-18T16:57:57.722Z,100685.47
2022-10-18T17:00:24.909Z,100690.86
2022-10-18T17:02:51.980Z,100687.70
2022-10-18T17:05:19.672Z,100690.92
2022-10-18T17:07:47.743Z,100697.90
2022-10-18T17:10:18.879Z,100699.54
2022-10-18T17:12:46.137Z,100698.48
2022-10-18T17:15:13.308Z,100696.04
2022-10-18T17:17:40.664Z,100699.02
2022-10-18T17:20:08.706Z,100702.33
2022-10-18T17:22:36.287Z,100702.70
2022-10-18T17:25:04.244Z,100713.69
2022-10-18T17:27:32.316Z,100726.13
2022-10-18T17:30:14.752Z,100723.64
2022-10-18T17:32:44.131Z,100719.04
2022-10-18T17:35:12.385Z,100717.49
2022-10-18T17:37:44.047Z,100719.23
2022-10-18T17:40:13.649Z,100714.32
2022-10-18T17:42:40.927Z,100707.92
2022-10-18T17:45:09.123Z,100699.58
2022-10-18T17:47:50.775Z,100696.36
2022-10-18T17:50:18.447Z,100698.98
2022-10-18T17:52:46.910Z,100697.59
2022-10-18T17:55:15.184Z,100697.95
2022-10-18T17:57:43.300Z,100696.52
2022-10-18T18:00:13.211Z,100702.59
2022-10-18T18:02:42.212Z,100696.07
2022-10-18T18:05:10.125Z,100691.46
2022-10-18T18:07:37.434Z,100691.38
2022-10-18T18:10:05.201Z,100689.66
2022-10-18T18:12:47.395Z,100700.61
2022-10-18T18:15:14.650Z,100705.64
2022-10-18T18:17:58.100Z,100706.40
2022-10-18T18:20:26.170Z,100707.76
2022-10-18T18:22:53.926Z,100706.96
2022-10-18T18:25:21.341Z,100710.18
2022-10-18T18:27:48.456Z,100708.27
2022-10-18T18:30:17.584Z,100714.70
2022-10-18T18:33:05.196Z,100714.08
2022-10-18T18:35:32.561Z,100714.83
2022-10-18T18:37:59.948Z,100719.33
2022-10-18T18:40:27.454Z,100713.92
2022-10-18T18:43:12.072Z,100719.80
2022-10-18T18:45:50.079Z,100716.35
2022-10-18T18:48:19.767Z,100709.72
2022-10-18T18:50:51.604Z,100709.52
2022-10-18T18:53:19.256Z,100709.32
2022-10-18T18:55:48.061Z,100703.60
2022-10-18T18:58:15.452Z,100702.45
2022-10-18T19:00:44.511Z,100702.29
2022-10-18T19:03:12.365Z,100704.11
2022-10-18T19:05:39.505Z,100700.39
2022-10-18T19:08:06.492Z,100701.41
2022-10-18T19:10:33.485Z,100705.23
2022-10-18T19:13:00.867Z,100702.74
2022-10-18T19:15:30.010Z,100701.95
2022-10-18T19:17:59.113Z,100698.93
2022-10-18T19:20:26.324Z,100697.71
2022-10-18T19:22:53.551Z,100704.68
2022-10-18T19:25:22.251Z,100707.98
2022-10-18T19:27:52.003Z,100703.52
2022-10-18T19:30:19.282Z,100706.09
2022-10-18T19:32:46.479Z,100711.03
2022-10-18T19:35:28.011Z,100707.42
2022-10-18T19:37:55.162Z,100707.92
2022-10-18T19:40:22.573Z,100704.92
2022-10-18T19:42:49.634Z,100707.46
2022-10-18T19:45:16.774Z,100702.13
2022-10-18T19:47:43.989Z,100706.20
2022-10-18T19:50:11.146Z,100703.98
2022-10-18T19:52:38.088Z,100705.91
2022-10-18T19:55:05.725Z,100699.98
2022-10-18T19:57:32.928Z,100699.66
2022-10-18T20:00:00.944Z,100709.91
2022-10-18T20:02:38.677Z,100706.08
2022-10-18T20:05:06.280Z,100705.79
2022-10-18T20:07:33.801Z,100714.23
2022-10-18T20:10:01.054Z,100720.89
2022-10-18T20:12:28.728Z,100706.20
2022-10-18T20:14:56.170Z,100718.20
2022-10-18T20:17:23.536Z,100717.27
2022-10-18T20:19:50.931Z,100715.59
2022-10-18T20:22:18.274Z,100713.40
2022-10-18T20:24:46.163Z,100712.12
2022-10-18T20:27:13.937Z,100713.02
2022-10-18T20:29:41.302Z,100709.19
2022-10-18T20:32:09.052Z,100706.52
2022-10-18T20:34:36.602Z,100705.77
2022-10-18T20:37:03.799Z,100709.61
2022-10-18T20:39:31.343Z,100711.98
2022-10-18T20:41:59.016Z,100714.77
2022-10-18T20:44:26.738Z,100714.02
2022-10-18T20:46:54.162Z,100711.80
2022-10-18T20:49:22.098Z,100711.14
2022-10-18T20:51:49.576Z,100711.65
2022-10-18T20:54:16.603Z,100706.39
2022-10-18T20:56:43.647Z,100704.48
2022-10-18T20:59:11.147Z,100703.40
2022-10-18T21:01:39.408Z,100702.41
2022-10-18T21:04:09.466Z,100702.55
2022-10-18T21:06:42.572Z,100705.05
2022-10-18T21:09:16.566Z,100703.48
2022-10-18T21:11:46.273Z,100702.52
2022-10-18T21:14:18.051Z,100700.98
2022-10-18T21:16:46.682Z,100704.19
2022-10-18T21:19:17.226Z,100701.05
2022-10-18T21:21:47.368Z,100700.56
2022-10-18T21:24:14.917Z,100697.52
2022-10-18T21:26:43.086Z,100694.78
2022-10-18T21:29:12.253Z,100692.82
2022-10-18T21:31:42.096Z,100694.70
2022-10-18T21:34:15.401Z,100695.73
2022-10-18T21:36:44.644Z,100691.65
2022-10-18T21:39:15.728Z,100687.56
2022-10-18T21:41:44.158Z,100685.84
2022-10-18T21:44:12.354Z,100688.56
2022-10-18T21:46:42.573Z,100688.63
2022-10-18T21:49:10.905Z,100685.34
2022-10-18T21:51:38.608Z,100687.98
2022-10-18T21:54:11.180Z,100686.75
2022-10-18T21:56:52.678Z,100687.47
2022-10-18T21:59:20.111Z,100688.27
2022-10-18T22:01:47.549Z,100689.16
2022-10-18T22:04:27.146Z,100690.86
2022-10-18T22:06:54.564Z,100682.52
2022-10-18T22:09:22.101Z,100677.06
2022-10-18T22:11:52.032Z,100671.93
2022-10-18T22:14:19.909Z,100661.44
2022-10-18T22:16:47.152Z,100659.20
2022-10-18T22:19:14.991Z,100656.99
2022-10-18T22:21:42.454Z,100648.69
2022-10-18T22:24:09.895Z,100646.49
2022-10-18T22:26:51.658Z,100644.60
2022-10-18T22:29:33.449Z,100642.71
2022-10-18T22:32:01.328Z,100640.09
2022-10-18T22:34:28.619Z,100637.51
2022-10-18T22:37:10.273Z,100630.43
2022-10-18T22:39:37.782Z,100631.85
2022-10-18T22:42:05.691Z,100627.52
2022-10-18T22:44:35.794Z,100629.92
2022-10-18T22:47:03.170Z,100632.46
2022-10-18T22:49:30.682Z,100630.87
2022-10-18T22:51:57.999Z,100630.02
2022-10-18T22:54:25.331Z,100625.64
2022-10-18T22:56:52.810Z,100619.48
2022-10-18T22:59:20.460Z,100615.38
2022-10-18T23:01:47.687Z,100620.20
2022-10-18T23:04:15.198Z,100615.96
2022-10-18T23:06:42.803Z,100613.79
2022-10-18T23:09:11.044Z,100617.36
2022-10-18T23:11:38.489Z,100615.54
2022-10-18T23:14:06.756Z,100613.59
2022-10-18T23:16:34.263Z,100619.34
2022-10-18T23:19:16.594Z,100621.80
2022-10-18T23:21:58.217Z,100619.52
2022-10-18T23:24:25.844Z,100616.38
2022-10-18T23:26:53.351Z,100610.27
2022-10-18T23:29:20.804Z,100614.09
2022-10-18T23:31:48.245Z,100608.77
2022-10-18T23:34:15.873Z,100606.34
2022-10-18T23:39:11.861Z,100601.94
2022-10-18T23:41:39.303Z,100601.95
2022-10-18T23:44:08.493Z,100598.16
2022-10-18T23:46:36.104Z,100599.98
2022-10-18T23:49:03.462Z,100594.00
2022-10-18T23:51:30.984Z,100591.13
2022-10-18T23:53:58.508Z,100588.23
2022-10-18T23:56:25.930Z,100588.88
2022-10-18T23:58:53.407Z,100590.37
